Time;durP1;ratioP1;P1;durP2;ratioP2;P2;SDS_P1;SDS_P2;PMS_P1;PMS_P2;Temp;Humidity;BMP_temperature;BMP_pressure;BME280_temperature;BME280_humidity;BME280_pressure;Samples;Min_cycle;Max_cycle;Signal;HPM_P1;HPM_P2
2023/10/18 00:01:09;;;;;;;7.03;5.00;;;;;;;10.54;98.07;94791.53;5111228;28;20497;-44
2023/10/18 00:03:37;;;;;;;11.13;5.40;;;;;;;10.59;98.13;94796.25;5091789;28;20203;-45
2023/10/18 00:06:13;;;;;;;7.50;5.40;;;;;;;10.64;97.68;94785.63;5092193;28;20182;-43
2023/10/18 00:08:41;;;;;;;5.93;5.33;;;;;;;10.56;97.41;94760.72;5092212;28;20201;-43
2023/10/18 00:11:08;;;;;;;5.70;5.13;;;;;;;10.71;97.19;94787.50;5111343;28;20746;-43
2023/10/18 00:13:35;;;;;;;5.90;5.33;;;;;;;10.72;96.78;94781.44;5111499;28;20686;-42
2023/10/18 00:16:03;;;;;;;6.90;5.97;;;;;;;10.75;96.30;94780.34;5109623;28;20189;-43
2023/10/18 00:18:29;;;;;;;6.73;5.33;;;;;;;10.83;96.19;94780.47;5095657;28;20818;-43
2023/10/18 00:21:00;;;;;;;6.83;5.07;;;;;;;10.85;96.08;94782.91;5091014;28;20192;-43
2023/10/18 00:23:28;;;;;;;7.30;5.73;;;;;;;10.90;96.29;94780.75;5101355;28;20735;-44
2023/10/18 00:25:56;;;;;;;5.87;5.27;;;;;;;10.92;96.64;94776.28;5111555;28;20184;-44
2023/10/18 00:28:23;;;;;;;6.20;5.60;;;;;;;10.92;97.20;94773.72;5101656;28;20243;-43
2023/10/18 00:30:52;;;;;;;6.43;5.80;;;;;;;10.92;97.33;94771.97;5090915;28;20612;-43
2023/10/18 00:33:19;;;;;;;7.00;6.40;;;;;;;10.89;96.99;94767.16;5091062;28;20273;-43
2023/10/18 00:35:47;;;;;;;6.27;5.67;;;;;;;10.91;96.50;94765.25;5090849;28;20756;-44
2023/10/18 00:38:17;;;;;;;6.83;5.63;;;;;;;10.96;95.85;94769.94;5101341;28;20192;-42
2023/10/18 00:40:45;;;;;;;6.47;5.87;;;;;;;10.94;95.39;94764.16;5090882;28;20689;-43
2023/10/18 00:43:19;;;;;;;6.67;6.07;;;;;;;10.98;95.11;94762.94;5090826;28;20534;-43
2023/10/18 00:45:50;;;;;;;6.93;5.47;;;;;;;11.03;95.00;94766.69;5090462;28;20280;-43
2023/10/18 00:48:20;;;;;;;7.37;6.43;;;;;;;11.02;95.64;94756.63;5092438;28;20263;-43
2023/10/18 00:50:51;;;;;;;7.37;6.00;;;;;;;10.97;95.90;94751.91;5091182;28;20224;-44
2023/10/18 00:53:22;;;;;;;8.03;6.30;;;;;;;10.96;96.22;94757.94;5090757;28;20735;-44
2023/10/18 00:55:52;;;;;;;9.70;7.00;;;;;;;10.94;96.10;94764.16;5090719;28;20286;-44
2023/10/18 00:58:22;;;;;;;8.50;6.93;;;;;;;10.94;96.14;94764.97;5090263;28;20607;-44
2023/10/18 01:00:50;;;;;;;9.27;7.00;;;;;;;10.99;96.02;94777.34;5090368;28;20201;-42
2023/10/18 01:03:28;;;;;;;8.90;7.00;;;;;;;11.03;96.14;94771.81;5107608;28;20204;-45
2023/10/18 01:06:00;;;;;;;7.70;6.73;;;;;;;11.02;96.63;94772.75;5110973;28;20183;-43
2023/10/18 01:08:29;;;;;;;8.73;7.77;;;;;;;10.97;97.43;94769.81;5110913;28;20301;-44
2023/10/18 01:10:58;;;;;;;11.20;6.90;;;;;;;10.96;97.62;94763.06;5109815;28;20208;-44
2023/10/18 01:13:26;;;;;;;10.90;7.10;;;;;;;10.93;97.95;94763.38;5110510;28;20197;-44
2023/10/18 01:15:53;;;;;;;7.93;7.13;;;;;;;10.91;98.27;94764.44;5093530;28;20230;-44
2023/10/18 01:18:20;;;;;;;9.87;7.30;;;;;;;10.89;98.42;94761.22;5090554;28;20194;-43
2023/10/18 01:20:47;;;;;;;10.27;7.80;;;;;;;10.88;98.65;94754.47;5089805;28;20221;-43
2023/10/18 01:23:14;;;;;;;9.20;8.27;;;;;;;10.85;98.64;94763.25;5090221;28;20189;-48
2023/10/18 01:25:42;;;;;;;8.53;7.17;;;;;;;10.73;98.63;94739.56;5090022;28;20178;-43
2023/10/18 01:28:09;;;;;;;10.50;8.13;;;;;;;10.86;98.87;94771.72;5103085;28;20279;-43
2023/10/18 01:30:37;;;;;;;10.93;8.50;;;;;;;10.86;98.80;94766.59;5089915;28;20292;-44
2023/10/18 01:33:10;;;;;;;10.20;8.53;;;;;;;10.85;99.05;94760.69;5090755;28;20196;-43
2023/10/18 01:35:46;;;;;;;13.27;9.13;;;;;;;10.83;98.52;94754.09;5089940;28;20220;-43
2023/10/18 01:38:15;;;;;;;13.70;9.07;;;;;;;10.84;98.45;94769.31;5090039;28;20190;-43
2023/10/18 01:40:53;;;;;;;9.10;8.20;;;;;;;10.88;98.12;94762.16;5090042;28;20219;-42
2023/10/18 01:43:20;;;;;;;13.47;9.33;;;;;;;10.91;97.98;94772.09;5089657;28;20200;-43
2023/10/18 01:45:49;;;;;;;10.77;8.83;;;;;;;10.93;98.07;94770.25;5089923;28;20197;-43
2023/10/18 01:48:19;;;;;;;11.70;8.93;;;;;;;10.90;97.69;94767.94;5089604;28;20319;-42
2023/10/18 01:50:47;;;;;;;11.83;9.00;;;;;;;10.87;97.30;94771.56;5089436;28;20193;-43
2023/10/18 01:53:18;;;;;;;11.03;9.20;;;;;;;10.84;97.52;94758.25;5089678;28;20193;-45
2023/10/18 01:55:51;;;;;;;10.00;8.40;;;;;;;10.79;97.73;94762.06;5089197;28;20190;-43
2023/10/18 01:58:23;;;;;;;11.50;8.67;;;;;;;10.79;97.75;94764.59;5089600;28;20696;-43
2023/10/18 02:00:52;;;;;;;13.00;9.20;;;;;;;10.75;97.80;94765.00;5095562;28;20221;-42
2023/10/18 02:03:19;;;;;;;10.90;9.17;;;;;;;10.74;97.66;94765.94;5109688;28;20291;-42
2023/10/18 02:05:47;;;;;;;11.40;9.80;;;;;;;10.74;97.91;94765.94;5109616;28;20234;-42
2023/10/18 02:08:14;;;;;;;10.07;8.87;;;;;;;10.73;98.19;94770.25;5110247;28;20262;-44
2023/10/18 02:10:42;;;;;;;13.77;9.60;;;;;;;10.69;98.55;94761.25;5109905;28;20189;-43
2023/10/18 02:13:10;;;;;;;13.20;9.50;;;;;;;10.70;98.90;94769.72;5112028;28;20656;-42
2023/10/18 02:15:39;;;;;;;11.57;9.37;;;;;;;10.68;98.88;94764.75;5105387;28;20522;-43
2023/10/18 02:18:06;;;;;;;10.70;9.13;;;;;;;10.65;98.87;94765.00;5089741;28;20638;-43
2023/10/18 02:20:35;;;;;;;12.03;9.77;;;;;;;10.61;98.88;94758.56;5089834;28;20300;-43
2023/10/18 02:23:02;;;;;;;15.67;10.33;;;;;;;10.59;99.16;94762.19;5093198;28;20337;-43
2023/10/18 02:25:42;;;;;;;11.50;9.97;;;;;;;10.60;99.50;94766.38;5093574;28;20196;-43
2023/10/18 02:28:22;;;;;;;12.90;9.57;;;;;;;10.43;99.54;94744.84;5093708;28;20193;-43
2023/10/18 02:30:55;;;;;;;13.30;9.70;;;;;;;10.59;99.55;94760.44;5093250;28;20549;-42
2023/10/18 02:33:36;;;;;;;16.37;10.30;;;;;;;10.63;99.10;94761.78;5098924;28;20238;-43
2023/10/18 02:36:05;;;;;;;11.63;10.17;;;;;;;10.67;99.10;94762.34;5113744;28;20228;-43
2023/10/18 02:38:33;;;;;;;11.67;9.77;;;;;;;10.65;99.17;94756.53;5113426;28;20231;-44
2023/10/18 02:41:04;;;;;;;12.37;9.43;;;;;;;10.67;99.43;94747.00;5113327;28;20687;-43
2023/10/18 02:43:31;;;;;;;11.33;9.23;;;;;;;10.59;98.86;94745.09;5113618;28;20241;-43
2023/10/18 02:46:00;;;;;;;13.77;9.67;;;;;;;10.68;98.92;94757.06;5111727;28;20196;-45
2023/10/18 02:48:26;;;;;;;11.80;9.53;;;;;;;10.74;98.87;94753.97;5095582;28;20218;-46
2023/10/18 02:50:57;;;;;;;11.87;10.13;;;;;;;10.75;99.02;94747.91;5092816;28;20200;-43
2023/10/18 02:53:25;;;;;;;13.17;9.20;;;;;;;10.75;98.71;94752.19;5093127;28;20679;-43
2023/10/18 02:55:55;;;;;;;11.57;10.37;;;;;;;10.75;98.61;94753.03;5092645;28;20285;-43
2023/10/18 02:58:28;;;;;;;11.03;8.77;;;;;;;10.78;98.50;94754.50;5103479;28;20196;-43
2023/10/18 03:01:02;;;;;;;11.53;9.70;;;;;;;10.73;98.49;94744.69;5112996;28;20311;-43
2023/10/18 03:03:31;;;;;;;11.63;9.47;;;;;;;10.72;98.49;94750.75;5113622;28;20197;-44
2023/10/18 03:06:05;;;;;;;10.57;8.63;;;;;;;10.69;98.47;94745.09;5111262;28;20571;-42
2023/10/18 03:08:32;;;;;;;11.93;9.47;;;;;;;10.71;98.37;94751.69;5100594;28;20189;-43
2023/10/18 03:11:00;;;;;;;10.10;8.73;;;;;;;10.71;98.05;94751.69;5092441;28;20224;-43
2023/10/18 03:13:28;;;;;;;11.63;9.27;;;;;;;10.74;98.18;94753.16;5092417;28;20695;-43
2023/10/18 03:16:06;;;;;;;10.77;8.77;;;;;;;10.70;98.20;94739.03;5092419;28;20644;-43
2023/10/18 03:18:36;;;;;;;12.33;9.90;;;;;;;10.79;97.96;94743.31;5099435;28;20185;-43
2023/10/18 03:21:08;;;;;;;12.87;9.17;;;;;;;10.78;98.04;94741.69;5112290;28;20250;-43
2023/10/18 03:23:44;;;;;;;9.73;8.67;;;;;;;10.79;98.08;94750.97;5112649;28;20185;-44
2023/10/18 03:26:11;;;;;;;9.67;8.43;;;;;;;10.71;98.37;94740.66;5112171;28;20644;-44
2023/10/18 03:28:40;;;;;;;10.70;8.13;;;;;;;10.70;98.45;94749.25;5110587;28;20675;-43
2023/10/18 03:31:21;;;;;;;12.37;8.30;;;;;;;10.63;98.80;94733.66;5103570;28;20186;-44
2023/10/18 03:33:53;;;;;;;11.70;8.63;;;;;;;10.61;98.47;94732.19;5091243;28;20190;-43
2023/10/18 03:36:21;;;;;;;11.83;8.63;;;;;;;10.61;98.70;94735.53;5091931;28;20189;-42
2023/10/18 03:38:54;;;;;;;9.57;7.53;;;;;;;10.58;98.72;94733.28;5092109;28;20232;-43
2023/10/18 03:41:22;;;;;;;9.93;7.67;;;;;;;10.57;98.95;94729.09;5092033;28;20225;-44
2023/10/18 03:43:49;;;;;;;10.50;8.00;;;;;;;10.62;98.64;94728.66;5098841;28;20250;-43
2023/10/18 03:46:19;;;;;;;10.03;8.17;;;;;;;10.59;99.13;94723.84;5112237;28;20196;-43
2023/10/18 03:48:54;;;;;;;11.17;8.27;;;;;;;10.58;99.00;94729.88;5112210;28;20374;-44
2023/10/18 03:51:23;;;;;;;12.13;8.33;;;;;;;10.59;98.95;94737.44;5110900;28;20644;-42
2023/10/18 03:53:52;;;;;;;9.63;8.07;;;;;;;10.61;99.00;94738.09;5112465;28;20193;-42
2023/10/18 03:56:21;;;;;;;9.17;7.73;;;;;;;10.63;98.63;94735.41;5112184;28;20583;-43
2023/10/18 03:59:00;;;;;;;8.73;7.30;;;;;;;10.60;98.73;94730.56;5112285;28;20213;-47
2023/10/18 04:01:28;;;;;;;9.07;8.10;;;;;;;10.61;98.49;94724.50;5103907;28;20703;-43
2023/10/18 04:03:56;;;;;;;9.17;7.43;;;;;;;10.61;98.40;94722.75;5095337;28;20613;-44
2023/10/18 04:06:28;;;;;;;9.43;7.07;;;;;;;10.61;98.36;94712.53;5091472;28;20194;-43
2023/10/18 04:09:07;;;;;;;8.43;6.90;;;;;;;10.58;98.51;94711.97;5091675;28;20680;-43
2023/10/18 04:11:34;;;;;;;11.20;7.70;;;;;;;10.56;98.84;94719.81;5104115;28;20663;-43
2023/10/18 04:14:02;;;;;;;9.80;6.80;;;;;;;10.64;98.58;94726.78;5096573;28;20602;-44
2023/10/18 04:16:30;;;;;;;7.50;6.70;;;;;;;10.64;98.15;94724.25;5092067;28;20185;-44
2023/10/18 04:18:58;;;;;;;11.17;7.37;;;;;;;10.68;97.94;94712.78;5091700;28;20273;-43
2023/10/18 04:21:27;;;;;;;8.40;7.20;;;;;;;10.59;98.28;94704.19;5090594;28;20213;-44
2023/10/18 04:23:56;;;;;;;10.07;7.17;;;;;;;10.64;98.30;94714.00;5090982;28;20189;-44
2023/10/18 04:26:25;;;;;;;7.13;6.43;;;;;;;10.66;98.12;94719.78;5105559;28;20674;-43
2023/10/18 04:28:57;;;;;;;7.63;6.93;;;;;;;10.59;98.09;94706.75;5111312;28;20185;-43
2023/10/18 04:31:25;;;;;;;9.03;6.77;;;;;;;10.68;97.99;94717.91;5110531;28;20211;-44
2023/10/18 04:33:53;;;;;;;6.70;5.93;;;;;;;10.68;98.00;94723.81;5111441;28;20293;-43
2023/10/18 04:36:21;;;;;;;7.33;6.63;;;;;;;10.67;98.12;94719.66;5110956;28;20204;-43
2023/10/18 04:38:51;;;;;;;7.37;6.53;;;;;;;10.70;98.37;94716.00;5111128;28;20246;-44
2023/10/18 04:41:27;;;;;;;8.80;6.83;;;;;;;10.71;98.20;94725.31;5098434;28;20229;-44
2023/10/18 04:44:00;;;;;;;9.70;7.03;;;;;;;10.71;98.40;94722.75;5090936;28;20205;-44
2023/10/18 04:46:30;;;;;;;11.20;7.63;;;;;;;10.74;98.24;94733.50;5091791;28;20639;-44
2023/10/18 04:52:01;;;;;;;9.83;7.03;;;;;;;10.84;98.03;94733.50;5107473;27;20533;-44
2023/10/18 04:54:35;;;;;;;8.97;6.83;;;;;;;10.84;98.18;94736.06;5107202;28;20666;-45
2023/10/18 04:57:04;;;;;;;11.53;6.63;;;;;;;10.84;98.42;94741.16;5108399;28;20188;-53
2023/10/18 04:59:35;;;;;;;8.10;6.37;;;;;;;10.86;98.67;94746.13;5109864;28;20295;-45
2023/10/18 05:02:01;;;;;;;9.73;6.80;;;;;;;10.87;98.59;94752.88;5125002;28;20717;-45
2023/10/18 05:04:29;;;;;;;8.67;5.90;;;;;;;10.86;98.52;94766.59;5128466;27;20188;-46
2023/10/18 05:07:00;;;;;;;8.10;5.97;;;;;;;10.88;98.40;94764.69;5113312;27;20276;-44
2023/10/18 05:09:34;;;;;;;6.37;5.73;;;;;;;10.83;98.25;94762.56;5108118;28;20521;-54
2023/10/18 05:12:07;;;;;;;9.50;6.30;;;;;;;10.88;98.18;94768.09;5107859;28;20234;-44
2023/10/18 05:14:40;;;;;;;6.90;6.20;;;;;;;10.84;98.11;94761.63;5105318;28;20204;-44
2023/10/18 05:17:17;;;;;;;7.57;6.03;;;;;;;10.92;97.97;94776.28;5104796;28;20617;-43
2023/10/18 05:19:44;;;;;;;10.13;6.60;;;;;;;10.97;97.83;94784.38;5104712;28;20230;-44
2023/10/18 05:22:17;;;;;;;7.23;5.77;;;;;;;10.93;97.66;94777.91;5105838;28;20185;-45
2023/10/18 05:24:46;;;;;;;6.73;5.87;;;;;;;11.02;97.46;94793.25;5105004;28;20761;-44
2023/10/18 05:27:24;;;;;;;6.97;6.23;;;;;;;11.01;97.33;94803.59;5105316;28;20710;-45
2023/10/18 05:29:54;;;;;;;7.40;5.37;;;;;;;11.05;97.28;94807.50;5105771;28;20253;-46
2023/10/18 05:32:49;;;;;;;6.03;5.43;;;;;;;11.09;97.25;94808.03;5105717;28;20185;-45
2023/10/18 05:35:26;;;;;;;8.20;6.27;;;;;;;11.09;96.89;94813.94;5104320;28;20223;-45
2023/10/18 05:38:06;;;;;;;6.50;5.80;;;;;;;11.10;96.75;94812.22;5103934;28;20223;-45
2023/10/18 05:40:46;;;;;;;7.80;5.90;;;;;;;11.08;96.75;94803.88;5103122;28;20193;-44
2023/10/18 05:43:23;;;;;;;7.47;6.13;;;;;;;11.08;96.74;94806.41;5104888;28;20207;-45
2023/10/18 05:45:55;;;;;;;5.33;4.93;;;;;;;11.06;96.59;94811.69;5104110;28;20291;-45
2023/10/18 05:48:24;;;;;;;6.27;4.90;;;;;;;11.00;96.60;94794.31;5103339;28;20233;-45
2023/10/18 05:50:56;;;;;;;6.63;4.93;;;;;;;10.99;96.91;94790.94;5103677;28;20237;-43
2023/10/18 05:53:28;;;;;;;8.43;5.73;;;;;;;11.03;97.11;94797.41;5103892;28;20192;-45
2023/10/18 05:55:55;;;;;;;8.17;6.50;;;;;;;11.10;97.09;94802.78;5103884;28;20228;-44
2023/10/18 05:58:26;;;;;;;7.27;6.00;;;;;;;11.17;96.90;94792.78;5103486;28;20199;-45
2023/10/18 06:00:55;;;;;;;5.67;4.93;;;;;;;11.17;96.81;94791.03;5103918;28;20258;-45
2023/10/18 06:03:25;;;;;;;8.70;6.17;;;;;;;11.12;96.84;94788.09;5086530;28;20644;-43
2023/10/18 06:05:55;;;;;;;6.30;5.67;;;;;;;11.16;96.97;94797.09;5092277;28;20220;-44
2023/10/18 06:08:24;;;;;;;7.57;6.17;;;;;;;11.20;96.67;94795.88;5090095;28;20260;-44
2023/10/18 06:10:56;;;;;;;7.10;5.30;;;;;;;11.22;96.75;94796.53;5085737;28;20249;-45
2023/10/18 06:13:26;;;;;;;6.87;5.97;;;;;;;11.29;96.61;94812.16;5093332;28;20276;-44
2023/10/18 06:15:58;;;;;;;6.27;5.67;;;;;;;11.35;96.40;94810.78;5088605;28;20201;-45
2023/10/18 06:18:30;;;;;;;7.70;6.03;;;;;;;11.38;96.38;94802.84;5095513;28;20201;-44
2023/10/18 06:20:59;;;;;;;6.37;5.77;;;;;;;11.42;96.26;94797.31;5092300;28;20189;-44
2023/10/18 06:26:28;;;;;;;7.10;6.40;;;;;;;11.49;95.48;94800.13;5091644;28;20665;-44
2023/10/18 06:29:00;;;;;;;11.73;5.87;;;;;;;11.62;94.99;94805.72;5091609;28;20181;-44
2023/10/18 06:31:29;;;;;;;7.10;5.53;;;;;;;11.65;94.85;94814.88;5092066;28;20225;-44
2023/10/18 06:33:58;;;;;;;6.53;5.90;;;;;;;11.71;94.66;94804.88;5091978;28;20209;-43
2023/10/18 06:36:25;;;;;;;6.50;5.80;;;;;;;11.77;94.43;94819.66;5092062;28;20182;-43
2023/10/18 06:38:54;;;;;;;6.97;6.33;;;;;;;11.85;94.10;94811.31;5092060;28;20190;-44
2023/10/18 06:41:21;;;;;;;6.50;5.63;;;;;;;11.88;93.78;94805.09;5091511;28;20240;-46
2023/10/18 06:43:49;;;;;;;9.93;6.73;;;;;;;11.99;93.66;94817.72;5091549;28;20326;-44
2023/10/18 06:46:22;;;;;;;6.87;6.00;;;;;;;12.05;93.10;94822.28;5094809;28;20326;-44
2023/10/18 06:48:51;;;;;;;8.30;5.77;;;;;;;12.15;92.39;94827.34;5091404;28;20193;-45
2023/10/18 06:51:18;;;;;;;5.70;5.10;;;;;;;12.25;92.26;94826.31;5100084;28;20252;-44
2023/10/18 06:53:50;;;;;;;6.30;5.70;;;;;;;12.34;91.78;94822.09;5111010;28;20734;-44
2023/10/18 06:56:20;;;;;;;6.50;5.70;;;;;;;12.46;90.99;94820.13;5099457;28;20198;-43
2023/10/18 06:58:47;;;;;;;7.37;4.83;;;;;;;12.48;90.60;94825.94;5089931;28;20208;-47
2023/10/18 07:01:20;;;;;;;9.33;5.73;;;;;;;12.55;89.98;94821.81;5091235;28;20553;-44
2023/10/18 07:03:48;;;;;;;7.73;5.63;;;;;;;12.59;89.33;94822.31;5091216;28;20196;-44
2023/10/18 07:06:23;;;;;;;6.57;5.70;;;;;;;12.60;88.72;94829.88;5091971;28;20691;-43
2023/10/18 07:08:51;;;;;;;8.10;6.23;;;;;;;12.69;88.51;94836.69;5090358;28;20189;-45
2023/10/18 07:11:20;;;;;;;5.77;5.17;;;;;;;12.70;88.46;94822.13;5092094;28;20304;-42
2023/10/18 07:13:50;;;;;;;8.97;5.77;;;;;;;12.80;87.36;94831.34;5088915;28;20197;-43
2023/10/18 07:16:25;;;;;;;6.10;5.50;;;;;;;12.79;87.68;94836.63;5089354;28;20197;-44
2023/10/18 07:19:04;;;;;;;6.93;5.37;;;;;;;12.80;87.53;94833.09;5088786;28;20189;-42
2023/10/18 07:21:32;;;;;;;6.57;5.67;;;;;;;12.89;87.05;94839.91;5096408;28;20241;-45
2023/10/18 07:24:09;;;;;;;6.23;5.37;;;;;;;12.81;87.17;94834.72;5087512;28;20227;-44
2023/10/18 07:26:46;;;;;;;6.93;6.07;;;;;;;12.42;86.97;94768.31;5091068;28;20199;-43
2023/10/18 07:29:13;;;;;;;5.67;5.17;;;;;;;12.88;86.59;94835.75;5090573;28;20189;-43
2023/10/18 07:31:44;;;;;;;6.87;5.17;;;;;;;12.93;86.39;94830.97;5091495;28;20221;-43
2023/10/18 07:34:17;;;;;;;5.80;5.30;;;;;;;13.00;85.97;94841.47;5089497;28;21040;-45
2023/10/18 07:36:45;;;;;;;6.00;4.93;;;;;;;13.10;85.69;94831.91;5089861;28;20665;-44
2023/10/18 07:39:12;;;;;;;8.90;5.83;;;;;;;13.04;85.53;94819.66;5089516;28;20201;-45
2023/10/18 07:41:41;;;;;;;6.60;5.90;;;;;;;12.76;85.25;94760.72;5091885;28;20213;-44
2023/10/18 07:44:08;;;;;;;6.50;5.53;;;;;;;12.83;85.10;94762.72;5089607;28;20194;-44
2023/10/18 07:46:39;;;;;;;6.83;5.47;;;;;;;13.37;84.75;94832.75;5088846;28;20193;-45
2023/10/18 07:49:11;;;;;;;8.30;4.93;;;;;;;13.38;84.54;94824.88;5091126;28;20211;-44
2023/10/18 07:51:43;;;;;;;7.53;5.60;;;;;;;13.34;83.85;94828.69;5089874;28;20228;-43
2023/10/18 07:54:10;;;;;;;7.50;6.43;;;;;;;13.36;83.86;94819.09;5089352;28;20194;-42
2023/10/18 07:56:40;;;;;;;6.30;5.70;;;;;;;13.35;83.91;94808.97;5089547;28;20190;-43
2023/10/18 08:02:07;;;;;;;7.60;6.10;;;;;;;13.36;84.06;94813.16;5086913;28;20184;-43
2023/10/18 08:04:36;;;;;;;7.97;6.23;;;;;;;13.53;83.36;94825.13;5089102;28;20648;-43
2023/10/18 08:07:03;;;;;;;7.47;6.27;;;;;;;13.60;83.21;94825.31;5090997;28;20186;-45
2023/10/18 08:09:30;;;;;;;7.97;6.70;;;;;;;13.62;83.17;94831.94;5090968;28;20205;-44
2023/10/18 08:11:57;;;;;;;9.03;6.07;;;;;;;13.61;82.60;94824.38;5088844;28;20638;-43
2023/10/18 08:14:26;;;;;;;8.67;7.00;;;;;;;13.69;82.60;94822.66;5088970;28;20178;-45
2023/10/18 08:16:55;;;;;;;9.43;6.43;;;;;;;13.70;82.23;94820.88;5089749;28;20189;-45
2023/10/18 08:19:26;;;;;;;7.37;6.23;;;;;;;13.80;82.18;94835.22;5089378;28;20204;-44
2023/10/18 08:22:09;;;;;;;9.93;6.10;;;;;;;13.77;81.46;94830.41;5088414;28;20217;-43
2023/10/18 08:24:37;;;;;;;10.63;6.00;;;;;;;13.76;81.47;94833.91;5089119;28;20243;-44
2023/10/18 08:27:10;;;;;;;7.13;6.37;;;;;;;13.82;81.55;94842.78;5091185;28;20208;-43
2023/10/18 08:29:38;;;;;;;8.67;6.47;;;;;;;13.78;81.01;94834.59;5088205;28;20749;-44
2023/10/18 08:32:09;;;;;;;10.00;6.00;;;;;;;13.74;81.10;94827.34;5090039;28;20206;-43
2023/10/18 08:34:36;;;;;;;8.27;6.33;;;;;;;13.83;80.74;94831.53;5094802;28;20212;-45
2023/10/18 08:37:04;;;;;;;6.03;5.40;;;;;;;13.88;80.73;94841.38;5097294;28;20217;-43
2023/10/18 08:39:31;;;;;;;5.90;5.40;;;;;;;13.93;79.98;94841.72;5089749;28;20236;-44
2023/10/18 08:42:05;;;;;;;5.83;5.30;;;;;;;13.86;79.75;94841.53;5089582;28;20193;-44
2023/10/18 08:44:33;;;;;;;6.50;5.83;;;;;;;13.94;79.64;94845.88;5088058;28;20193;-43
2023/10/18 08:47:12;;;;;;;5.67;5.13;;;;;;;14.09;79.01;94843.53;5088374;28;20178;-44
2023/10/18 08:49:45;;;;;;;7.47;5.70;;;;;;;14.02;78.72;94820.19;5088041;28;20189;-44
2023/10/18 08:52:16;;;;;;;6.00;5.40;;;;;;;14.18;78.78;94845.19;5088618;28;20244;-44
2023/10/18 08:54:45;;;;;;;6.40;4.83;;;;;;;14.18;78.10;94847.75;5089293;28;20215;-45
2023/10/18 08:57:14;;;;;;;5.60;5.10;;;;;;;14.18;78.06;94851.13;5089755;28;20177;-46
2023/10/18 08:59:46;;;;;;;8.70;5.60;;;;;;;14.29;77.95;94852.59;5088615;28;20301;-44
2023/10/18 09:02:18;;;;;;;6.47;5.60;;;;;;;14.42;77.91;94854.72;5089561;28;20194;-45
2023/10/18 09:04:52;;;;;;;5.93;5.33;;;;;;;14.44;77.57;94850.25;5089234;28;20201;-43
2023/10/18 09:07:21;;;;;;;6.17;5.57;;;;;;;14.45;77.21;94857.00;5089941;28;20190;-44
2023/10/18 09:09:56;;;;;;;5.73;5.23;;;;;;;14.47;77.38;94855.88;5089003;28;20278;-43
2023/10/18 09:15:29;;;;;;;6.77;5.80;;;;;;;14.60;76.88;94852.88;5088392;28;20216;-44
2023/10/18 09:18:02;;;;;;;6.47;5.53;;;;;;;14.64;76.92;94856.75;5088986;28;20209;-44
2023/10/18 09:20:30;;;;;;;5.67;5.10;;;;;;;14.74;76.58;94867.69;5087408;28;20250;-44
2023/10/18 09:23:03;;;;;;;9.10;5.00;;;;;;;14.71;76.00;94865.44;5090079;28;20665;-45
2023/10/18 09:25:47;;;;;;;6.10;4.80;;;;;;;14.76;75.71;94865.75;5099663;28;20213;-47
2023/10/18 09:28:19;;;;;;;11.47;5.47;;;;;;;14.80;76.05;94869.63;5101469;28;20253;-44
2023/10/18 09:30:46;;;;;;;7.17;5.50;;;;;;;14.87;75.82;94861.28;5095605;28;20203;-46
2023/10/18 09:33:14;;;;;;;5.80;5.30;;;;;;;14.85;75.78;94866.56;5108026;28;20205;-46
2023/10/18 09:35:47;;;;;;;6.73;6.00;;;;;;;14.74;75.82;94857.41;5110047;28;20640;-45
2023/10/18 09:38:17;;;;;;;6.10;5.50;;;;;;;14.63;76.18;94846.59;5114058;28;20193;-44
2023/10/18 09:40:45;;;;;;;7.07;5.90;;;;;;;14.70;76.03;94852.72;5113575;28;20197;-45
2023/10/18 09:43:11;;;;;;;6.17;5.33;;;;;;;14.73;76.13;94849.84;5113354;28;20265;-45
2023/10/18 09:45:38;;;;;;;7.87;5.87;;;;;;;14.77;76.02;94843.41;5113223;28;20185;-45
2023/10/18 09:48:08;;;;;;;6.23;5.57;;;;;;;14.77;76.11;94851.13;5113388;28;20189;-45
2023/10/18 09:50:36;;;;;;;11.93;6.97;;;;;;;14.83;76.04;94845.34;5113087;28;20227;-45
2023/10/18 09:53:05;;;;;;;8.77;6.80;;;;;;;14.80;76.27;94835.34;5113119;28;20225;-45
2023/10/18 09:55:35;;;;;;;9.83;5.83;;;;;;;14.77;76.18;94830.53;5113169;28;20237;-46
2023/10/18 09:58:04;;;;;;;7.57;6.13;;;;;;;14.90;75.67;94827.50;5113431;28;20219;-44
2023/10/18 10:00:33;;;;;;;8.00;5.90;;;;;;;15.03;75.41;94831.19;5114619;28;20270;-45
2023/10/18 10:03:08;;;;;;;8.13;5.57;;;;;;;15.08;75.05;94827.34;5113798;27;20220;-45
2023/10/18 10:05:41;;;;;;;7.07;5.87;;;;;;;15.15;74.60;94829.06;5113075;28;20180;-44
2023/10/18 10:08:09;;;;;;;11.37;5.90;;;;;;;15.26;74.30;94822.81;5112778;28;20727;-45
2023/10/18 10:10:44;;;;;;;6.17;5.57;;;;;;;15.33;73.96;94821.19;5112854;28;20199;-45
2023/10/18 10:13:18;;;;;;;7.67;6.17;;;;;;;15.47;73.63;94820.50;5112595;28;20236;-44
2023/10/18 10:15:48;;;;;;;8.83;6.10;;;;;;;15.55;73.53;94814.53;5112424;28;20193;-46
2023/10/18 10:18:18;;;;;;;6.53;5.30;;;;;;;15.59;73.65;94809.84;5112283;28;20193;-45
2023/10/18 10:20:48;;;;;;;7.63;6.27;;;;;;;15.64;73.64;94805.84;5112557;28;20234;-45
2023/10/18 10:23:17;;;;;;;6.40;5.40;;;;;;;15.71;73.46;94801.59;5112189;28;20185;-45
2023/10/18 10:26:11;;;;;;;6.00;5.40;;;;;;;15.77;73.39;94806.13;5112475;28;20249;-44
2023/10/18 10:31:50;;;;;;;5.50;5.00;;;;;;;15.79;72.27;94796.44;5112238;28;20220;-45
2023/10/18 10:34:24;;;;;;;5.53;4.77;;;;;;;15.84;71.31;94790.75;5112352;28;20192;-45
2023/10/18 10:36:53;;;;;;;5.70;5.07;;;;;;;15.82;71.20;94789.34;5111973;27;20555;-45
2023/10/18 10:39:25;;;;;;;5.90;5.30;;;;;;;15.74;72.09;94796.13;5112097;28;20193;-43
2023/10/18 10:41:53;;;;;;;5.93;5.17;;;;;;;15.63;72.34;94793.91;5112071;28;20660;-43
2023/10/18 10:44:30;;;;;;;9.60;5.60;;;;;;;15.57;72.96;94797.13;5112080;28;20197;-45
2023/10/18 10:47:30;;;;;;;6.93;5.47;;;;;;;15.52;73.34;94791.66;5111936;27;20185;-44
2023/10/18 10:50:01;;;;;;;5.83;5.23;;;;;;;15.56;73.15;94796.31;5111679;28;20654;-45
2023/10/18 10:52:30;;;;;;;8.77;5.43;;;;;;;15.48;73.49;94805.84;5111908;28;20215;-46
2023/10/18 10:55:17;;;;;;;5.60;4.80;;;;;;;15.41;73.62;94797.16;5111862;28;20188;-46
2023/10/18 10:57:45;;;;;;;5.97;5.27;;;;;;;15.34;73.89;94791.88;5111524;28;20578;-45
2023/10/18 11:03:29;;;;;;;5.93;5.23;;;;;;;15.26;73.96;94797.03;5075612;28;20735;-44
2023/10/18 11:05:58;;;;;;;6.43;5.17;;;;;;;15.30;73.98;94796.53;5067720;28;20240;-44
2023/10/18 11:08:28;;;;;;;6.57;5.33;;;;;;;15.29;74.22;94800.09;5070622;28;20183;-44
2023/10/18 11:10:57;;;;;;;6.70;5.10;;;;;;;15.32;74.32;94798.94;5082450;28;20337;-45
2023/10/18 11:13:25;;;;;;;8.67;5.00;;;;;;;15.10;74.06;94763.56;5091877;28;20209;-42
2023/10/18 11:15:53;;;;;;;8.00;4.90;;;;;;;15.16;74.71;94792.06;5089054;28;20657;-43
2023/10/18 11:18:22;;;;;;;7.17;4.87;;;;;;;15.11;74.79;94783.19;5090014;28;20544;-43
2023/10/18 11:20:58;;;;;;;6.50;5.10;;;;;;;15.14;75.09;94796.56;5088010;28;20197;-47
2023/10/18 11:23:29;;;;;;;5.80;4.70;;;;;;;15.17;75.17;94803.16;5089822;28;20197;-44
2023/10/18 11:25:57;;;;;;;7.23;5.33;;;;;;;15.19;74.84;94802.03;5089712;28;20236;-44
2023/10/18 11:28:29;;;;;;;6.13;5.30;;;;;;;15.19;75.26;94796.88;5090855;28;20210;-45
2023/10/18 11:30:57;;;;;;;6.00;5.30;;;;;;;15.18;75.19;94792.69;5089934;28;20217;-44
2023/10/18 11:33:46;;;;;;;6.23;5.23;;;;;;;15.18;75.17;94790.13;5089461;28;20373;-43
2023/10/18 11:36:17;;;;;;;7.00;5.03;;;;;;;15.15;75.26;94785.28;5089948;28;20686;-42
2023/10/18 11:41:30;;;;;;;6.50;5.73;;;;;;;15.04;75.40;94758.09;5089146;28;20322;-42
2023/10/18 11:43:57;;;;;;;9.63;5.77;;;;;;;15.23;75.32;94789.63;5089713;28;20643;-44
2023/10/18 11:46:24;;;;;;;6.63;5.37;;;;;;;15.24;75.45;94786.91;5090206;28;20218;-43
2023/10/18 11:48:55;;;;;;;6.57;5.03;;;;;;;15.24;75.46;94771.44;5089967;28;20224;-43
2023/10/18 11:51:22;;;;;;;7.20;6.07;;;;;;;15.14;75.28;94763.06;5088363;28;20233;-45
2023/10/18 11:53:53;;;;;;;8.13;5.83;;;;;;;15.29;75.54;94779.47;5090195;28;20750;-44
2023/10/18 11:56:20;;;;;;;7.63;5.93;;;;;;;15.30;75.48;94773.34;5090300;28;20561;-44
2023/10/18 11:59:01;;;;;;;7.33;5.47;;;;;;;15.04;75.59;94739.28;5090036;28;20212;-42
2023/10/18 12:01:33;;;;;;;7.67;5.17;;;;;;;15.27;75.35;94773.66;5087500;28;20193;-44
2023/10/18 12:04:00;;;;;;;6.27;5.63;;;;;;;15.35;75.20;94780.59;5088300;28;20201;-42
2023/10/18 12:06:27;;;;;;;6.97;6.20;;;;;;;15.24;74.98;94744.84;5089402;28;20197;-44
2023/10/18 12:11:52;;;;;;;8.23;5.17;;;;;;;15.58;73.98;94772.94;5089815;28;20197;-44